Lincolnville, Kansas
Current Conditions -  °F | °C
As of 7:55 AM on Thursday 30 Oct 2014 (Local Time) from KEWK Reporting Station
Clear Clear  
Wind Chill: 44°   Ceiling: Unl
Heat Index: 48°   Visibility: 10mi
Dew Point: 32°   Wind: 9mph
Humidity: 54%   Direction: 280°W
Pressure: 30.07"   Gusts: NA
Location:  38.49°N, 96.96°W
Report Text: KEWK 301255Z AUTO 28008KT 10SM CLR 09/00 A3007 RMK AO1
Loading
Personal Weather Stations






























Interactive Weather Map New forecast layout! Learn more

10-Day Weather Forecast

Advertisements
Track Severe Weather on mobile